sensor_id;sensor_type;location;lat;lon;timestamp;P1;durP1;ratioP1;P2;durP2;ratioP2
33279;SDS011;20403;43.114;12.434;2024-02-04T00:00:26;25.42;;;12.70;;
33279;SDS011;20403;43.114;12.434;2024-02-04T00:02:51;23.38;;;12.13;;
33279;SDS011;20403;43.114;12.434;2024-02-04T00:05:17;19.27;;;11.25;;
33279;SDS011;20403;43.114;12.434;2024-02-04T00:07:43;20.98;;;12.95;;
33279;SDS011;20403;43.114;12.434;2024-02-04T00:10:09;23.75;;;13.43;;
33279;SDS011;20403;43.114;12.434;2024-02-04T00:12:35;19.77;;;12.63;;
33279;SDS011;20403;43.114;12.434;2024-02-04T00:15:00;28.92;;;15.13;;
33279;SDS011;20403;43.114;12.434;2024-02-04T00:17:26;26.83;;;14.82;;
33279;SDS011;20403;43.114;12.434;2024-02-04T00:19:55;27.67;;;14.55;;
33279;SDS011;20403;43.114;12.434;2024-02-04T00:22:21;25.50;;;13.60;;
33279;SDS011;20403;43.114;12.434;2024-02-04T00:24:47;25.88;;;15.68;;
33279;SDS011;20403;43.114;12.434;2024-02-04T00:27:12;26.38;;;14.60;;
33279;SDS011;20403;43.114;12.434;2024-02-04T00:29:38;20.33;;;12.98;;
33279;SDS011;20403;43.114;12.434;2024-02-04T00:32:03;25.55;;;12.80;;
33279;SDS011;20403;43.114;12.434;2024-02-04T00:34:29;33.42;;;15.13;;
33279;SDS011;20403;43.114;12.434;2024-02-04T00:36:54;31.67;;;15.75;;
33279;SDS011;20403;43.114;12.434;2024-02-04T00:39:19;25.70;;;15.38;;
33279;SDS011;20403;43.114;12.434;2024-02-04T00:41:45;28.10;;;14.75;;
33279;SDS011;20403;43.114;12.434;2024-02-04T00:44:10;27.25;;;14.57;;
33279;SDS011;20403;43.114;12.434;2024-02-04T00:46:36;25.67;;;14.52;;
33279;SDS011;20403;43.114;12.434;2024-02-04T00:49:01;27.70;;;14.50;;
33279;SDS011;20403;43.114;12.434;2024-02-04T00:51:26;26.38;;;14.25;;
33279;SDS011;20403;43.114;12.434;2024-02-04T00:53:52;30.33;;;14.65;;
33279;SDS011;20403;43.114;12.434;2024-02-04T00:56:17;26.33;;;13.73;;
33279;SDS011;20403;43.114;12.434;2024-02-04T00:58:43;25.20;;;13.48;;
33279;SDS011;20403;43.114;12.434;2024-02-04T01:01:08;27.90;;;16.10;;
33279;SDS011;20403;43.114;12.434;2024-02-04T01:03:34;22.75;;;13.35;;
33279;SDS011;20403;43.114;12.434;2024-02-04T01:05:59;25.90;;;13.95;;
33279;SDS011;20403;43.114;12.434;2024-02-04T01:08:25;24.52;;;13.48;;
33279;SDS011;20403;43.114;12.434;2024-02-04T01:10:50;30.20;;;15.32;;
33279;SDS011;20403;43.114;12.434;2024-02-04T01:13:18;27.55;;;15.38;;
33279;SDS011;20403;43.114;12.434;2024-02-04T01:15:44;26.45;;;14.93;;
33279;SDS011;20403;43.114;12.434;2024-02-04T01:18:09;22.13;;;14.00;;
33279;SDS011;20403;43.114;12.434;2024-02-04T01:20:35;24.75;;;13.73;;
33279;SDS011;20403;43.114;12.434;2024-02-04T01:23:00;24.83;;;14.27;;
33279;SDS011;20403;43.114;12.434;2024-02-04T01:25:26;30.63;;;14.50;;
33279;SDS011;20403;43.114;12.434;2024-02-04T01:27:51;24.55;;;14.77;;
33279;SDS011;20403;43.114;12.434;2024-02-04T01:30:16;23.50;;;13.63;;
33279;SDS011;20403;43.114;12.434;2024-02-04T01:32:42;22.23;;;13.73;;
33279;SDS011;20403;43.114;12.434;2024-02-04T01:35:07;28.25;;;14.55;;
33279;SDS011;20403;43.114;12.434;2024-02-04T01:37:33;19.60;;;12.57;;
33279;SDS011;20403;43.114;12.434;2024-02-04T01:39:58;24.02;;;14.55;;
33279;SDS011;20403;43.114;12.434;2024-02-04T01:42:24;20.63;;;12.85;;
33279;SDS011;20403;43.114;12.434;2024-02-04T01:44:50;23.60;;;13.85;;
33279;SDS011;20403;43.114;12.434;2024-02-04T01:47:16;21.48;;;12.52;;
33279;SDS011;20403;43.114;12.434;2024-02-04T01:49:41;24.95;;;11.93;;
33279;SDS011;20403;43.114;12.434;2024-02-04T01:52:08;24.92;;;12.48;;
33279;SDS011;20403;43.114;12.434;2024-02-04T01:54:36;21.67;;;12.90;;
33279;SDS011;20403;43.114;12.434;2024-02-04T01:57:04;19.60;;;12.00;;
33279;SDS011;20403;43.114;12.434;2024-02-04T01:59:29;24.58;;;11.52;;
33279;SDS011;20403;43.114;12.434;2024-02-04T02:01:59;24.20;;;12.05;;
33279;SDS011;20403;43.114;12.434;2024-02-04T02:04:25;20.17;;;12.02;;
33279;SDS011;20403;43.114;12.434;2024-02-04T02:06:52;20.85;;;11.98;;
33279;SDS011;20403;43.114;12.434;2024-02-04T02:09:20;22.45;;;12.25;;
33279;SDS011;20403;43.114;12.434;2024-02-04T02:11:47;19.20;;;11.27;;
33279;SDS011;20403;43.114;12.434;2024-02-04T02:14:22;19.67;;;11.00;;
33279;SDS011;20403;43.114;12.434;2024-02-04T02:16:52;21.75;;;10.75;;
33279;SDS011;20403;43.114;12.434;2024-02-04T02:19:44;20.05;;;11.77;;
33279;SDS011;20403;43.114;12.434;2024-02-04T02:25:08;15.48;;;9.90;;
33279;SDS011;20403;43.114;12.434;2024-02-04T02:27:45;17.65;;;10.60;;
33279;SDS011;20403;43.114;12.434;2024-02-04T02:30:16;22.48;;;10.48;;
33279;SDS011;20403;43.114;12.434;2024-02-04T02:32:46;18.10;;;10.77;;
33279;SDS011;20403;43.114;12.434;2024-02-04T02:35:13;18.02;;;10.20;;
33279;SDS011;20403;43.114;12.434;2024-02-04T02:37:45;18.55;;;10.93;;
33279;SDS011;20403;43.114;12.434;2024-02-04T02:40:21;16.92;;;10.00;;
33279;SDS011;20403;43.114;12.434;2024-02-04T02:42:52;17.02;;;10.10;;
33279;SDS011;20403;43.114;12.434;2024-02-04T02:45:19;23.50;;;10.65;;
33279;SDS011;20403;43.114;12.434;2024-02-04T02:47:47;18.02;;;9.70;;
33279;SDS011;20403;43.114;12.434;2024-02-04T02:50:14;18.58;;;10.02;;
33279;SDS011;20403;43.114;12.434;2024-02-04T02:52:39;20.48;;;10.60;;
33279;SDS011;20403;43.114;12.434;2024-02-04T02:55:05;24.33;;;10.65;;
33279;SDS011;20403;43.114;12.434;2024-02-04T02:57:30;24.05;;;11.85;;
33279;SDS011;20403;43.114;12.434;2024-02-04T02:59:56;25.10;;;11.77;;
33279;SDS011;20403;43.114;12.434;2024-02-04T03:02:22;20.77;;;11.48;;
33279;SDS011;20403;43.114;12.434;2024-02-04T03:04:47;20.02;;;11.20;;
33279;SDS011;20403;43.114;12.434;2024-02-04T03:07:12;18.48;;;10.82;;
33279;SDS011;20403;43.114;12.434;2024-02-04T03:09:38;17.38;;;10.30;;
33279;SDS011;20403;43.114;12.434;2024-02-04T03:12:03;20.10;;;10.18;;
33279;SDS011;20403;43.114;12.434;2024-02-04T03:14:29;21.20;;;11.07;;
33279;SDS011;20403;43.114;12.434;2024-02-04T03:16:55;20.38;;;10.98;;
33279;SDS011;20403;43.114;12.434;2024-02-04T03:19:21;18.95;;;9.63;;
33279;SDS011;20403;43.114;12.434;2024-02-04T03:21:47;19.52;;;10.02;;
33279;SDS011;20403;43.114;12.434;2024-02-04T03:24:12;17.80;;;10.10;;
33279;SDS011;20403;43.114;12.434;2024-02-04T03:26:38;17.60;;;10.05;;
33279;SDS011;20403;43.114;12.434;2024-02-04T03:29:03;19.52;;;10.02;;
33279;SDS011;20403;43.114;12.434;2024-02-04T03:31:30;18.90;;;10.07;;
33279;SDS011;20403;43.114;12.434;2024-02-04T03:33:56;18.33;;;9.95;;
33279;SDS011;20403;43.114;12.434;2024-02-04T03:36:22;19.13;;;11.23;;
33279;SDS011;20403;43.114;12.434;2024-02-04T03:38:49;18.83;;;10.82;;
33279;SDS011;20403;43.114;12.434;2024-02-04T03:41:15;18.88;;;10.80;;
33279;SDS011;20403;43.114;12.434;2024-02-04T03:43:41;25.50;;;12.30;;
33279;SDS011;20403;43.114;12.434;2024-02-04T03:46:06;23.33;;;11.10;;
33279;SDS011;20403;43.114;12.434;2024-02-04T03:48:32;30.92;;;12.75;;
33279;SDS011;20403;43.114;12.434;2024-02-04T03:50:58;22.88;;;12.75;;
33279;SDS011;20403;43.114;12.434;2024-02-04T03:53:24;23.00;;;12.18;;
33279;SDS011;20403;43.114;12.434;2024-02-04T03:55:50;19.73;;;11.55;;
33279;SDS011;20403;43.114;12.434;2024-02-04T03:58:16;19.05;;;12.50;;
33279;SDS011;20403;43.114;12.434;2024-02-04T04:00:41;21.85;;;12.30;;
33279;SDS011;20403;43.114;12.434;2024-02-04T04:03:06;28.00;;;12.23;;
33279;SDS011;20403;43.114;12.434;2024-02-04T04:05:32;23.33;;;12.27;;
33279;SDS011;20403;43.114;12.434;2024-02-04T04:07:57;23.58;;;12.95;;
33279;SDS011;20403;43.114;12.434;2024-02-04T04:10:23;23.25;;;13.60;;
33279;SDS011;20403;43.114;12.434;2024-02-04T04:12:48;24.92;;;14.10;;
33279;SDS011;20403;43.114;12.434;2024-02-04T04:15:14;20.60;;;13.40;;
33279;SDS011;20403;43.114;12.434;2024-02-04T04:17:39;21.48;;;13.02;;
33279;SDS011;20403;43.114;12.434;2024-02-04T04:20:06;24.15;;;13.75;;
33279;SDS011;20403;43.114;12.434;2024-02-04T04:22:32;24.17;;;14.30;;
33279;SDS011;20403;43.114;12.434;2024-02-04T04:24:58;27.83;;;15.95;;
33279;SDS011;20403;43.114;12.434;2024-02-04T04:27:23;26.77;;;15.60;;
33279;SDS011;20403;43.114;12.434;2024-02-04T04:29:48;26.33;;;15.93;;
33279;SDS011;20403;43.114;12.434;2024-02-04T04:32:14;29.00;;;15.13;;
33279;SDS011;20403;43.114;12.434;2024-02-04T04:34:39;25.50;;;16.02;;
33279;SDS011;20403;43.114;12.434;2024-02-04T04:37:05;32.22;;;15.52;;
33279;SDS011;20403;43.114;12.434;2024-02-04T04:39:30;26.45;;;14.60;;
33279;SDS011;20403;43.114;12.434;2024-02-04T04:41:56;24.30;;;14.75;;
33279;SDS011;20403;43.114;12.434;2024-02-04T04:44:21;25.40;;;15.05;;
33279;SDS011;20403;43.114;12.434;2024-02-04T04:46:47;22.35;;;13.95;;
33279;SDS011;20403;43.114;12.434;2024-02-04T04:49:12;30.25;;;16.50;;
33279;SDS011;20403;43.114;12.434;2024-02-04T04:51:37;25.60;;;15.73;;
33279;SDS011;20403;43.114;12.434;2024-02-04T04:54:03;25.15;;;15.35;;
33279;SDS011;20403;43.114;12.434;2024-02-04T04:56:28;24.40;;;14.98;;
33279;SDS011;20403;43.114;12.434;2024-02-04T04:58:54;26.70;;;14.68;;
33279;SDS011;20403;43.114;12.434;2024-02-04T05:01:19;24.23;;;14.43;;
33279;SDS011;20403;43.114;12.434;2024-02-04T05:03:44;26.08;;;15.32;;
33279;SDS011;20403;43.114;12.434;2024-02-04T05:06:10;25.75;;;15.45;;
33279;SDS011;20403;43.114;12.434;2024-02-04T05:08:36;26.23;;;16.75;;
33279;SDS011;20403;43.114;12.434;2024-02-04T05:11:01;27.70;;;15.35;;
33279;SDS011;20403;43.114;12.434;2024-02-04T05:13:27;25.75;;;14.82;;
33279;SDS011;20403;43.114;12.434;2024-02-04T05:15:52;30.58;;;16.35;;
33279;SDS011;20403;43.114;12.434;2024-02-04T05:18:18;24.98;;;15.68;;
33279;SDS011;20403;43.114;12.434;2024-02-04T05:20:43;27.17;;;16.08;;
33279;SDS011;20403;43.114;12.434;2024-02-04T05:23:09;33.35;;;17.05;;
33279;SDS011;20403;43.114;12.434;2024-02-04T05:25:34;26.70;;;16.85;;
33279;SDS011;20403;43.114;12.434;2024-02-04T05:28:00;32.55;;;18.45;;
33279;SDS011;20403;43.114;12.434;2024-02-04T05:30:25;28.27;;;16.85;;
33279;SDS011;20403;43.114;12.434;2024-02-04T05:32:51;28.10;;;16.13;;
33279;SDS011;20403;43.114;12.434;2024-02-04T05:35:16;34.15;;;16.65;;
33279;SDS011;20403;43.114;12.434;2024-02-04T05:37:41;34.55;;;16.40;;
33279;SDS011;20403;43.114;12.434;2024-02-04T05:40:07;24.02;;;15.63;;
33279;SDS011;20403;43.114;12.434;2024-02-04T05:42:32;27.13;;;15.10;;
33279;SDS011;20403;43.114;12.434;2024-02-04T05:44:58;50.75;;;19.50;;
33279;SDS011;20403;43.114;12.434;2024-02-04T05:47:23;28.30;;;15.60;;
33279;SDS011;20403;43.114;12.434;2024-02-04T05:49:49;24.65;;;14.95;;
33279;SDS011;20403;43.114;12.434;2024-02-04T05:52:14;25.38;;;15.02;;
33279;SDS011;20403;43.114;12.434;2024-02-04T05:54:40;26.38;;;15.18;;
33279;SDS011;20403;43.114;12.434;2024-02-04T05:57:05;24.42;;;14.55;;
33279;SDS011;20403;43.114;12.434;2024-02-04T05:59:31;25.45;;;15.15;;
33279;SDS011;20403;43.114;12.434;2024-02-04T06:01:57;23.30;;;14.35;;
33279;SDS011;20403;43.114;12.434;2024-02-04T06:04:23;32.58;;;16.42;;
33279;SDS011;20403;43.114;12.434;2024-02-04T06:06:48;28.35;;;15.32;;
33279;SDS011;20403;43.114;12.434;2024-02-04T06:09:13;24.38;;;14.63;;
33279;SDS011;20403;43.114;12.434;2024-02-04T06:11:39;24.52;;;14.82;;
33279;SDS011;20403;43.114;12.434;2024-02-04T06:14:04;24.65;;;14.70;;
33279;SDS011;20403;43.114;12.434;2024-02-04T06:16:30;30.90;;;17.95;;
33279;SDS011;20403;43.114;12.434;2024-02-04T06:18:55;29.52;;;14.60;;
33279;SDS011;20403;43.114;12.434;2024-02-04T06:21:23;23.17;;;14.77;;
33279;SDS011;20403;43.114;12.434;2024-02-04T06:23:49;24.85;;;14.82;;
33279;SDS011;20403;43.114;12.434;2024-02-04T06:26:14;23.35;;;13.80;;
33279;SDS011;20403;43.114;12.434;2024-02-04T06:28:39;29.13;;;14.60;;
33279;SDS011;20403;43.114;12.434;2024-02-04T06:31:08;22.98;;;14.30;;
33279;SDS011;20403;43.114;12.434;2024-02-04T06:33:33;25.55;;;15.13;;
33279;SDS011;20403;43.114;12.434;2024-02-04T06:35:59;24.48;;;15.30;;
33279;SDS011;20403;43.114;12.434;2024-02-04T06:38:24;23.20;;;13.63;;
33279;SDS011;20403;43.114;12.434;2024-02-04T06:40:50;26.23;;;14.65;;
33279;SDS011;20403;43.114;12.434;2024-02-04T06:43:15;25.30;;;14.32;;
33279;SDS011;20403;43.114;12.434;2024-02-04T06:45:40;22.70;;;13.93;;
33279;SDS011;20403;43.114;12.434;2024-02-04T06:48:06;26.75;;;13.93;;
33279;SDS011;20403;43.114;12.434;2024-02-04T06:50:32;25.02;;;14.13;;
33279;SDS011;20403;43.114;12.434;2024-02-04T06:52:57;24.95;;;14.48;;
33279;SDS011;20403;43.114;12.434;2024-02-04T06:55:23;27.92;;;16.88;;
33279;SDS011;20403;43.114;12.434;2024-02-04T06:57:48;26.10;;;15.15;;
33279;SDS011;20403;43.114;12.434;2024-02-04T07:00:14;23.15;;;14.15;;
33279;SDS011;20403;43.114;12.434;2024-02-04T07:02:40;27.92;;;14.30;;
33279;SDS011;20403;43.114;12.434;2024-02-04T07:05:06;24.55;;;14.10;;
33279;SDS011;20403;43.114;12.434;2024-02-04T07:07:31;23.40;;;14.27;;
33279;SDS011;20403;43.114;12.434;2024-02-04T07:09:57;22.73;;;13.45;;
33279;SDS011;20403;43.114;12.434;2024-02-04T07:12:24;31.23;;;15.32;;
33279;SDS011;20403;43.114;12.434;2024-02-04T07:14:49;23.70;;;14.45;;
33279;SDS011;20403;43.114;12.434;2024-02-04T07:17:15;24.92;;;13.85;;
33279;SDS011;20403;43.114;12.434;2024-02-04T07:19:40;25.92;;;14.57;;
33279;SDS011;20403;43.114;12.434;2024-02-04T07:22:06;25.42;;;14.18;;
33279;SDS011;20403;43.114;12.434;2024-02-04T07:24:31;25.67;;;14.00;;
33279;SDS011;20403;43.114;12.434;2024-02-04T07:26:57;26.85;;;13.75;;
33279;SDS011;20403;43.114;12.434;2024-02-04T07:29:23;30.83;;;15.18;;
33279;SDS011;20403;43.114;12.434;2024-02-04T07:31:48;27.63;;;15.40;;
33279;SDS011;20403;43.114;12.434;2024-02-04T07:34:14;28.88;;;14.60;;
33279;SDS011;20403;43.114;12.434;2024-02-04T07:36:39;33.22;;;16.92;;
33279;SDS011;20403;43.114;12.434;2024-02-04T07:39:05;37.08;;;17.92;;
33279;SDS011;20403;43.114;12.434;2024-02-04T07:41:30;34.53;;;17.95;;
33279;SDS011;20403;43.114;12.434;2024-02-04T07:43:56;30.73;;;17.65;;
33279;SDS011;20403;43.114;12.434;2024-02-04T07:46:22;40.47;;;19.17;;
33279;SDS011;20403;43.114;12.434;2024-02-04T07:48:47;32.45;;;18.65;;
33279;SDS011;20403;43.114;12.434;2024-02-04T07:51:13;40.03;;;19.70;;
33279;SDS011;20403;43.114;12.434;2024-02-04T07:53:38;38.05;;;18.90;;
33279;SDS011;20403;43.114;12.434;2024-02-04T07:56:04;32.17;;;18.20;;
33279;SDS011;20403;43.114;12.434;2024-02-04T07:58:31;41.38;;;19.00;;
33279;SDS011;20403;43.114;12.434;2024-02-04T08:00:57;33.00;;;17.48;;
33279;SDS011;20403;43.114;12.434;2024-02-04T08:03:23;31.42;;;17.45;;
33279;SDS011;20403;43.114;12.434;2024-02-04T08:05:48;33.78;;;18.38;;
33279;SDS011;20403;43.114;12.434;2024-02-04T08:08:14;31.77;;;20.13;;
33279;SDS011;20403;43.114;12.434;2024-02-04T08:10:39;39.63;;;19.77;;
33279;SDS011;20403;43.114;12.434;2024-02-04T08:13:04;30.80;;;17.95;;
33279;SDS011;20403;43.114;12.434;2024-02-04T08:15:30;36.72;;;19.30;;
33279;SDS011;20403;43.114;12.434;2024-02-04T08:17:55;44.95;;;19.73;;
33279;SDS011;20403;43.114;12.434;2024-02-04T08:20:21;36.72;;;19.77;;
33279;SDS011;20403;43.114;12.434;2024-02-04T08:22:46;34.05;;;18.98;;
33279;SDS011;20403;43.114;12.434;2024-02-04T08:25:12;32.50;;;19.05;;
33279;SDS011;20403;43.114;12.434;2024-02-04T08:27:37;37.08;;;21.83;;
33279;SDS011;20403;43.114;12.434;2024-02-04T08:30:04;37.55;;;20.65;;
33279;SDS011;20403;43.114;12.434;2024-02-04T08:32:30;40.63;;;20.95;;
33279;SDS011;20403;43.114;12.434;2024-02-04T08:34:56;36.33;;;20.80;;
33279;SDS011;20403;43.114;12.434;2024-02-04T08:37:21;33.13;;;18.92;;
33279;SDS011;20403;43.114;12.434;2024-02-04T08:39:47;39.35;;;19.35;;
33279;SDS011;20403;43.114;12.434;2024-02-04T08:42:12;44.25;;;24.05;;
33279;SDS011;20403;43.114;12.434;2024-02-04T08:44:38;45.33;;;22.83;;
33279;SDS011;20403;43.114;12.434;2024-02-04T08:47:03;79.60;;;38.65;;
33279;SDS011;20403;43.114;12.434;2024-02-04T08:49:29;66.25;;;33.72;;
33279;SDS011;20403;43.114;12.434;2024-02-04T08:51:55;63.63;;;32.08;;
33279;SDS011;20403;43.114;12.434;2024-02-04T08:54:20;49.80;;;23.00;;
33279;SDS011;20403;43.114;12.434;2024-02-04T08:56:45;31.77;;;18.83;;
33279;SDS011;20403;43.114;12.434;2024-02-04T08:59:11;37.50;;;20.88;;
33279;SDS011;20403;43.114;12.434;2024-02-04T09:01:36;36.35;;;20.50;;
33279;SDS011;20403;43.114;12.434;2024-02-04T09:04:02;38.67;;;21.48;;
33279;SDS011;20403;43.114;12.434;2024-02-04T09:06:27;36.75;;;22.38;;
33279;SDS011;20403;43.114;12.434;2024-02-04T09:08:53;39.85;;;23.42;;
33279;SDS011;20403;43.114;12.434;2024-02-04T09:11:18;45.78;;;23.40;;
33279;SDS011;20403;43.114;12.434;2024-02-04T09:13:45;46.00;;;27.63;;
33279;SDS011;20403;43.114;12.434;2024-02-04T09:16:11;40.13;;;24.77;;
33279;SDS011;20403;43.114;12.434;2024-02-04T09:18:37;42.38;;;23.88;;
33279;SDS011;20403;43.114;12.434;2024-02-04T09:21:02;44.83;;;24.58;;
33279;SDS011;20403;43.114;12.434;2024-02-04T09:23:28;60.95;;;36.08;;
33279;SDS011;20403;43.114;12.434;2024-02-04T09:25:53;142.75;;;82.05;;
33279;SDS011;20403;43.114;12.434;2024-02-04T09:28:19;53.35;;;26.77;;
33279;SDS011;20403;43.114;12.434;2024-02-04T09:30:45;39.50;;;22.08;;
33279;SDS011;20403;43.114;12.434;2024-02-04T09:33:11;53.60;;;30.77;;
33279;SDS011;20403;43.114;12.434;2024-02-04T09:35:36;53.88;;;31.13;;
33279;SDS011;20403;43.114;12.434;2024-02-04T09:38:02;70.72;;;38.90;;
33279;SDS011;20403;43.114;12.434;2024-02-04T09:40:28;78.60;;;41.38;;
33279;SDS011;20403;43.114;12.434;2024-02-04T09:42:54;78.80;;;42.65;;
33279;SDS011;20403;43.114;12.434;2024-02-04T09:45:21;66.65;;;37.40;;
33279;SDS011;20403;43.114;12.434;2024-02-04T09:47:47;59.47;;;31.30;;
33279;SDS011;20403;43.114;12.434;2024-02-04T09:50:15;41.92;;;23.25;;
33279;SDS011;20403;43.114;12.434;2024-02-04T09:52:40;44.80;;;26.40;;
33279;SDS011;20403;43.114;12.434;2024-02-04T09:55:13;57.03;;;27.88;;
33279;SDS011;20403;43.114;12.434;2024-02-04T09:57:41;69.18;;;33.85;;
33279;SDS011;20403;43.114;12.434;2024-02-04T10:00:07;80.18;;;37.10;;
33279;SDS011;20403;43.114;12.434;2024-02-04T10:02:33;55.50;;;32.13;;
33279;SDS011;20403;43.114;12.434;2024-02-04T10:04:59;58.92;;;30.65;;
33279;SDS011;20403;43.114;12.434;2024-02-04T10:07:24;66.25;;;33.78;;
33279;SDS011;20403;43.114;12.434;2024-02-04T10:09:50;54.33;;;32.90;;
33279;SDS011;20403;43.114;12.434;2024-02-04T10:12:16;72.38;;;42.35;;
33279;SDS011;20403;43.114;12.434;2024-02-04T10:14:42;55.83;;;29.63;;
33279;SDS011;20403;43.114;12.434;2024-02-04T10:17:07;44.88;;;28.40;;
33279;SDS011;20403;43.114;12.434;2024-02-04T10:19:33;56.88;;;28.17;;
33279;SDS011;20403;43.114;12.434;2024-02-04T10:21:59;52.08;;;29.63;;
33279;SDS011;20403;43.114;12.434;2024-02-04T10:24:25;52.88;;;31.45;;
33279;SDS011;20403;43.114;12.434;2024-02-04T10:26:50;58.28;;;33.50;;
33279;SDS011;20403;43.114;12.434;2024-02-04T10:29:17;53.45;;;31.48;;
33279;SDS011;20403;43.114;12.434;2024-02-04T10:31:43;58.95;;;30.27;;
33279;SDS011;20403;43.114;12.434;2024-02-04T10:34:09;57.55;;;33.78;;
33279;SDS011;20403;43.114;12.434;2024-02-04T10:36:34;54.30;;;30.75;;
33279;SDS011;20403;43.114;12.434;2024-02-04T10:38:59;57.33;;;30.15;;
33279;SDS011;20403;43.114;12.434;2024-02-04T10:41:25;45.42;;;28.17;;
33279;SDS011;20403;43.114;12.434;2024-02-04T10:43:54;54.58;;;28.20;;
33279;SDS011;20403;43.114;12.434;2024-02-04T10:46:21;50.25;;;28.83;;
33279;SDS011;20403;43.114;12.434;2024-02-04T10:49:06;51.75;;;29.50;;
33279;SDS011;20403;43.114;12.434;2024-02-04T10:51:38;71.90;;;36.35;;
33279;SDS011;20403;43.114;12.434;2024-02-04T10:54:05;71.18;;;40.53;;
33279;SDS011;20403;43.114;12.434;2024-02-04T10:56:34;78.20;;;41.70;;
33279;SDS011;20403;43.114;12.434;2024-02-04T10:59:02;74.15;;;40.53;;
33279;SDS011;20403;43.114;12.434;2024-02-04T11:01:29;146.23;;;88.80;;
33279;SDS011;20403;43.114;12.434;2024-02-04T11:03:54;69.38;;;37.72;;
33279;SDS011;20403;43.114;12.434;2024-02-04T11:06:22;66.25;;;40.17;;
33279;SDS011;20403;43.114;12.434;2024-02-04T11:08:48;59.78;;;34.08;;
33279;SDS011;20403;43.114;12.434;2024-02-04T11:11:15;65.00;;;37.28;;
33279;SDS011;20403;43.114;12.434;2024-02-04T11:13:42;53.75;;;28.13;;
33279;SDS011;20403;43.114;12.434;2024-02-04T11:16:15;57.17;;;31.75;;
33279;SDS011;20403;43.114;12.434;2024-02-04T11:18:58;64.53;;;38.83;;
33279;SDS011;20403;43.114;12.434;2024-02-04T11:21:42;52.25;;;29.50;;
33279;SDS011;20403;43.114;12.434;2024-02-04T11:24:37;49.38;;;28.13;;
33279;SDS011;20403;43.114;12.434;2024-02-04T11:27:07;56.22;;;29.02;;
33279;SDS011;20403;43.114;12.434;2024-02-04T11:29:33;47.08;;;25.10;;
33279;SDS011;20403;43.114;12.434;2024-02-04T11:32:01;49.55;;;26.80;;
33279;SDS011;20403;43.114;12.434;2024-02-04T11:34:27;58.50;;;29.40;;
33279;SDS011;20403;43.114;12.434;2024-02-04T11:36:52;54.22;;;29.85;;
33279;SDS011;20403;43.114;12.434;2024-02-04T11:39:18;73.63;;;39.75;;
33279;SDS011;20403;43.114;12.434;2024-02-04T11:41:47;68.30;;;32.35;;
33279;SDS011;20403;43.114;12.434;2024-02-04T11:44:23;76.68;;;39.13;;
33279;SDS011;20403;43.114;12.434;2024-02-04T11:46:49;70.05;;;35.35;;
33279;SDS011;20403;43.114;12.434;2024-02-04T11:49:15;52.40;;;28.38;;
33279;SDS011;20403;43.114;12.434;2024-02-04T11:51:44;55.65;;;30.02;;
33279;SDS011;20403;43.114;12.434;2024-02-04T11:54:11;62.38;;;34.70;;
33279;SDS011;20403;43.114;12.434;2024-02-04T11:56:38;53.15;;;29.42;;
33279;SDS011;20403;43.114;12.434;2024-02-04T11:59:05;53.97;;;30.55;;
33279;SDS011;20403;43.114;12.434;2024-02-04T12:01:32;53.55;;;30.50;;
33279;SDS011;20403;43.114;12.434;2024-02-04T12:04:08;57.17;;;30.63;;
33279;SDS011;20403;43.114;12.434;2024-02-04T12:06:38;63.97;;;35.28;;
33279;SDS011;20403;43.114;12.434;2024-02-04T12:09:05;55.22;;;33.97;;
33279;SDS011;20403;43.114;12.434;2024-02-04T12:11:33;58.95;;;30.95;;
33279;SDS011;20403;43.114;12.434;2024-02-04T12:14:00;54.95;;;31.88;;
33279;SDS011;20403;43.114;12.434;2024-02-04T12:16:26;55.53;;;29.90;;
33279;SDS011;20403;43.114;12.434;2024-02-04T12:18:52;55.40;;;28.42;;
33279;SDS011;20403;43.114;12.434;2024-02-04T12:21:18;51.55;;;29.83;;
33279;SDS011;20403;43.114;12.434;2024-02-04T12:23:43;55.78;;;29.88;;
33279;SDS011;20403;43.114;12.434;2024-02-04T12:26:09;59.50;;;30.15;;
33279;SDS011;20403;43.114;12.434;2024-02-04T12:28:34;64.60;;;30.33;;
33279;SDS011;20403;43.114;12.434;2024-02-04T12:31:00;61.38;;;32.78;;
33279;SDS011;20403;43.114;12.434;2024-02-04T12:33:25;53.53;;;29.30;;
33279;SDS011;20403;43.114;12.434;2024-02-04T12:35:51;52.38;;;29.23;;
33279;SDS011;20403;43.114;12.434;2024-02-04T12:38:17;57.03;;;31.10;;
33279;SDS011;20403;43.114;12.434;2024-02-04T12:40:42;58.50;;;32.78;;
33279;SDS011;20403;43.114;12.434;2024-02-04T12:43:10;55.08;;;31.88;;
33279;SDS011;20403;43.114;12.434;2024-02-04T12:45:36;58.35;;;32.95;;
33279;SDS011;20403;43.114;12.434;2024-02-04T12:48:02;61.13;;;30.88;;
33279;SDS011;20403;43.114;12.434;2024-02-04T12:50:28;57.72;;;32.13;;
33279;SDS011;20403;43.114;12.434;2024-02-04T12:53:06;85.03;;;44.28;;
33279;SDS011;20403;43.114;12.434;2024-02-04T12:55:33;82.53;;;46.05;;
33279;SDS011;20403;43.114;12.434;2024-02-04T13:00:29;59.78;;;33.97;;
33279;SDS011;20403;43.114;12.434;2024-02-04T13:02:56;57.58;;;31.73;;
33279;SDS011;20403;43.114;12.434;2024-02-04T13:05:25;65.35;;;31.95;;
33279;SDS011;20403;43.114;12.434;2024-02-04T13:07:54;65.82;;;34.10;;
33279;SDS011;20403;43.114;12.434;2024-02-04T13:10:24;55.63;;;31.02;;
33279;SDS011;20403;43.114;12.434;2024-02-04T13:12:59;57.13;;;30.60;;
33279;SDS011;20403;43.114;12.434;2024-02-04T13:15:33;51.90;;;29.38;;
33279;SDS011;20403;43.114;12.434;2024-02-04T13:18:02;49.55;;;27.63;;
33279;SDS011;20403;43.114;12.434;2024-02-04T13:20:27;55.92;;;27.63;;
33279;SDS011;20403;43.114;12.434;2024-02-04T13:22:53;50.55;;;27.40;;
33279;SDS011;20403;43.114;12.434;2024-02-04T13:25:22;51.33;;;28.60;;
33279;SDS011;20403;43.114;12.434;2024-02-04T13:27:51;55.08;;;28.77;;
33279;SDS011;20403;43.114;12.434;2024-02-04T13:30:18;45.50;;;26.90;;
33279;SDS011;20403;43.114;12.434;2024-02-04T13:32:44;63.65;;;33.92;;
33279;SDS011;20403;43.114;12.434;2024-02-04T13:35:10;58.65;;;33.58;;
33279;SDS011;20403;43.114;12.434;2024-02-04T13:37:36;59.00;;;33.72;;
33279;SDS011;20403;43.114;12.434;2024-02-04T13:40:04;54.85;;;31.15;;
33279;SDS011;20403;43.114;12.434;2024-02-04T13:42:31;59.83;;;33.15;;
33279;SDS011;20403;43.114;12.434;2024-02-04T13:44:57;67.22;;;34.15;;
33279;SDS011;20403;43.114;12.434;2024-02-04T13:47:22;72.80;;;40.25;;
33279;SDS011;20403;43.114;12.434;2024-02-04T13:49:47;62.88;;;32.60;;
33279;SDS011;20403;43.114;12.434;2024-02-04T13:52:13;44.72;;;23.50;;
33279;SDS011;20403;43.114;12.434;2024-02-04T13:54:38;48.28;;;27.52;;
33279;SDS011;20403;43.114;12.434;2024-02-04T13:57:04;42.42;;;22.80;;
33279;SDS011;20403;43.114;12.434;2024-02-04T13:59:29;46.20;;;22.80;;
33279;SDS011;20403;43.114;12.434;2024-02-04T14:01:55;48.78;;;25.60;;
33279;SDS011;20403;43.114;12.434;2024-02-04T14:04:21;62.05;;;34.00;;
33279;SDS011;20403;43.114;12.434;2024-02-04T14:06:46;59.30;;;33.75;;
33279;SDS011;20403;43.114;12.434;2024-02-04T14:09:11;56.83;;;31.70;;